Time;durP1;ratioP1;P1;durP2;ratioP2;P2;SDS_P1;SDS_P2;PMS_P1;PMS_P2;Temp;Humidity;BMP_temperature;BMP_pressure;BME280_temperature;BME280_humidity;BME280_pressure;Samples;Min_cycle;Max_cycle;Signal;HPM_P1;HPM_P2
2022/11/02 00:00:34;;;;;;;21.75;10.60;;;;;;;8.91;95.50;99546.31;1711820;82;21004;-77
2022/11/02 00:03:03;;;;;;;24.50;11.22;;;;;;;8.88;95.44;99548.51;1707534;82;21020;-79
2022/11/02 00:05:32;;;;;;;22.87;10.65;;;;;;;8.84;95.34;99557.64;1703323;83;21024;-78
2022/11/02 00:08:00;;;;;;;21.93;11.18;;;;;;;8.83;96.45;99558.50;1689664;83;21040;-79
2022/11/02 00:10:28;;;;;;;22.62;11.03;;;;;;;8.82;95.82;99554.21;1713324;83;21091;-78
2022/11/02 00:12:56;;;;;;;27.30;12.30;;;;;;;8.79;95.74;99549.04;1715125;82;21035;-79
2022/11/02 00:15:29;;;;;;;23.35;12.30;;;;;;;8.79;95.94;99548.59;1716275;83;21422;-79
2022/11/02 00:18:01;;;;;;;25.30;12.45;;;;;;;8.80;95.96;99550.33;1723578;82;21063;-78
2022/11/02 00:20:29;;;;;;;26.10;12.98;;;;;;;8.83;96.33;99547.69;1722023;82;21496;-78
2022/11/02 00:22:59;;;;;;;25.12;12.65;;;;;;;8.83;95.83;99546.84;1715021;82;21036;-78
2022/11/02 00:25:29;;;;;;;24.25;12.55;;;;;;;8.83;96.32;99541.66;1716926;83;21011;-79
2022/11/02 00:27:56;;;;;;;24.45;12.25;;;;;;;8.80;97.28;99541.70;1713970;83;21046;-79
2022/11/02 00:30:24;;;;;;;24.15;12.65;;;;;;;8.82;97.42;99539.50;1714615;83;20964;-79
2022/11/02 00:32:52;;;;;;;29.05;13.22;;;;;;;8.83;96.48;99542.50;1716384;82;22210;-78
2022/11/02 00:35:19;;;;;;;29.18;13.15;;;;;;;8.85;96.16;99547.67;1715467;83;21562;-78
2022/11/02 00:37:47;;;;;;;27.93;14.10;;;;;;;8.85;96.21;99544.64;1714951;82;21000;-77
2022/11/02 00:40:16;;;;;;;27.13;11.78;;;;;;;8.85;97.17;99543.34;1728308;82;21000;-78
2022/11/02 00:42:43;;;;;;;23.40;11.15;;;;;;;8.87;96.30;99540.33;1713053;82;21040;-79
2022/11/02 00:45:11;;;;;;;23.98;10.68;;;;;;;8.85;96.18;99543.79;1710590;83;21051;-77
2022/11/02 00:47:39;;;;;;;19.50;10.32;;;;;;;8.82;97.32;99537.36;1715824;83;21015;-78
2022/11/02 00:50:08;;;;;;;16.95;10.13;;;;;;;8.82;96.69;99532.17;1718623;82;21609;-79
2022/11/02 00:52:41;;;;;;;21.48;10.43;;;;;;;8.74;96.90;99531.80;1690149;83;21027;-78
2022/11/02 00:55:10;;;;;;;20.80;10.35;;;;;;;8.71;97.13;99536.16;1720678;82;21452;-78
2022/11/02 00:57:40;;;;;;;20.68;10.65;;;;;;;8.70;96.53;99533.16;1733655;82;20972;-79
2022/11/02 01:00:11;;;;;;;22.15;10.53;;;;;;;8.65;95.86;99532.34;1709871;82;21558;-79
2022/11/02 01:02:38;;;;;;;20.68;11.68;;;;;;;8.64;95.65;99529.34;1730337;82;21051;-79
2022/11/02 01:05:09;;;;;;;20.12;11.33;;;;;;;8.61;96.19;99522.43;1713798;82;21035;-79
2022/11/02 01:07:37;;;;;;;22.87;11.48;;;;;;;8.59;96.21;99528.06;1729412;82;21078;-78
2022/11/02 01:10:08;;;;;;;21.35;11.05;;;;;;;8.59;96.97;99523.33;1712292;82;21075;-79
2022/11/02 01:12:38;;;;;;;21.80;10.50;;;;;;;8.56;96.50;99525.08;1708441;84;20984;-79
2022/11/02 01:15:09;;;;;;;23.07;11.10;;;;;;;8.56;96.03;99519.89;1707081;82;21812;-79
2022/11/02 01:17:38;;;;;;;24.65;11.90;;;;;;;8.43;95.90;99513.55;1704837;81;21072;-77
2022/11/02 01:20:07;;;;;;;25.23;12.80;;;;;;;8.38;95.75;99511.42;1706619;82;21055;-80
2022/11/02 01:22:35;;;;;;;22.07;10.93;;;;;;;8.34;95.78;99510.14;1717870;82;21023;-79
2022/11/02 01:25:03;;;;;;;21.82;11.15;;;;;;;8.36;95.57;99511.44;1706604;82;20993;-79
2022/11/02 01:27:31;;;;;;;18.82;10.10;;;;;;;8.34;96.37;99507.55;1710353;84;21012;-79
2022/11/02 01:29:59;;;;;;;20.35;10.53;;;;;;;8.29;96.25;99518.83;1712141;84;21579;-79
2022/11/02 01:32:29;;;;;;;20.12;11.00;;;;;;;8.25;95.58;99514.10;1708714;82;21092;-78
2022/11/02 01:34:57;;;;;;;22.80;11.22;;;;;;;8.15;95.61;99514.62;1715291;82;21655;-79
2022/11/02 01:37:24;;;;;;;21.12;11.28;;;;;;;8.08;95.67;99511.67;1708511;82;21554;-79
2022/11/02 01:39:52;;;;;;;19.92;10.53;;;;;;;8.03;95.83;99516.47;1712162;84;21095;-78
2022/11/02 01:42:23;;;;;;;20.32;10.72;;;;;;;8.00;95.66;99519.06;1717221;82;21063;-78
2022/11/02 01:44:51;;;;;;;20.97;10.50;;;;;;;7.94;96.17;99523.44;1710849;82;22197;-79
2022/11/02 01:47:30;;;;;;;21.40;10.40;;;;;;;7.97;97.16;99518.66;1708260;82;21071;-80
2022/11/02 01:50:15;;;;;;;20.77;10.98;;;;;;;8.01;96.82;99525.53;1705668;84;21040;-78
2022/11/02 01:52:42;;;;;;;18.20;10.15;;;;;;;8.06;97.13;99529.41;1706903;82;20996;-79
2022/11/02 01:55:28;;;;;;;18.02;9.23;;;;;;;8.08;95.92;99525.92;1707016;84;22258;-79
2022/11/02 01:58:04;;;;;;;23.18;11.50;;;;;;;8.09;96.17;99527.63;1713829;82;21023;-80
2022/11/02 02:00:32;;;;;;;21.27;10.95;;;;;;;8.11;95.67;99524.58;1728485;82;21551;-78
2022/11/02 02:03:09;;;;;;;25.10;10.85;;;;;;;8.12;96.44;99523.73;1708230;82;21023;-79
2022/11/02 02:05:42;;;;;;;21.68;10.85;;;;;;;8.21;96.88;99518.05;1727065;82;21024;-79
2022/11/02 02:08:14;;;;;;;23.30;11.55;;;;;;;8.26;96.87;99518.43;1711016;82;21040;-78
2022/11/02 02:10:41;;;;;;;23.12;11.22;;;;;;;8.30;96.93;99516.67;1698125;82;21000;-79
2022/11/02 02:13:11;;;;;;;22.70;11.05;;;;;;;8.31;97.14;99513.20;1706188;82;21404;-79
2022/11/02 02:15:55;;;;;;;22.10;10.68;;;;;;;8.32;96.80;99517.08;1720133;82;21019;-78
2022/11/02 02:18:35;;;;;;;19.60;9.67;;;;;;;8.28;96.08;99513.24;1707354;82;21192;-78
2022/11/02 02:21:08;;;;;;;17.80;9.53;;;;;;;8.33;96.70;99526.99;1708714;82;21522;-80
2022/11/02 02:24:30;;;;;;;16.37;8.63;;;;;;;8.32;96.01;99514.93;1706925;82;21023;-79
2022/11/02 02:27:11;;;;;;;19.27;10.38;;;;;;;8.30;95.99;99525.30;1707239;82;21028;-78
2022/11/02 02:29:50;;;;;;;18.60;9.58;;;;;;;8.31;97.09;99525.70;1699595;82;21027;-79
2022/11/02 02:32:46;;;;;;;19.85;10.00;;;;;;;8.30;95.38;99521.86;1719443;82;21040;-78
2022/11/02 02:35:28;;;;;;;18.12;9.60;;;;;;;8.24;95.89;99524.50;1701751;82;22087;-79
2022/11/02 02:38:03;;;;;;;21.10;10.50;;;;;;;8.31;96.32;99527.45;1699316;84;21052;-78
2022/11/02 02:40:45;;;;;;;20.08;9.90;;;;;;;8.33;96.57;99528.28;1707537;82;20988;-79
2022/11/02 02:43:17;;;;;;;19.77;10.30;;;;;;;8.34;95.99;99529.58;1701413;84;21083;-79
2022/11/02 02:45:53;;;;;;;18.67;9.38;;;;;;;8.40;97.53;99533.00;1717530;82;21055;-79
2022/11/02 02:48:23;;;;;;;19.40;9.68;;;;;;;8.44;97.07;99525.20;1708298;82;21292;-79
2022/11/02 02:51:08;;;;;;;21.15;10.98;;;;;;;8.51;97.39;99528.59;1710327;82;21051;-83
2022/11/02 02:53:46;;;;;;;17.87;9.43;;;;;;;8.53;97.25;99531.61;1707780;84;21336;-78
2022/11/02 02:56:20;;;;;;;21.65;9.80;;;;;;;8.54;96.33;99537.19;1693039;83;21035;-78
2022/11/02 02:58:59;;;;;;;20.27;10.23;;;;;;;8.55;96.67;99529.86;1711849;82;21005;-79
2022/11/02 03:01:28;;;;;;;23.38;10.55;;;;;;;8.58;96.66;99530.25;1724304;82;21015;-78
2022/11/02 03:03:56;;;;;;;24.77;10.65;;;;;;;8.62;96.55;99528.50;1734083;82;21043;-78
2022/11/02 03:06:30;;;;;;;24.25;11.12;;;;;;;8.62;96.45;99528.05;1711623;82;22250;-78
2022/11/02 03:09:20;;;;;;;20.23;10.98;;;;;;;8.63;96.40;99530.20;1705139;82;21047;-78
2022/11/02 03:12:00;;;;;;;22.75;9.85;;;;;;;8.68;96.56;99536.20;1697983;82;21036;-79
2022/11/02 03:15:09;;;;;;;21.27;10.35;;;;;;;8.68;96.35;99536.20;1720391;82;21079;-80
2022/11/02 03:18:03;;;;;;;18.60;10.45;;;;;;;8.69;95.79;99532.28;1705391;82;21693;-78
2022/11/02 03:20:47;;;;;;;18.25;10.25;;;;;;;8.72;96.06;99529.66;1700824;84;21044;-79
2022/11/02 03:23:35;;;;;;;20.17;9.60;;;;;;;8.74;95.98;99527.91;1711532;82;21567;-79
2022/11/02 03:26:24;;;;;;;20.05;10.23;;;;;;;8.74;95.89;99527.06;1706056;84;21042;-79
2022/11/02 03:29:09;;;;;;;21.10;10.13;;;;;;;8.76;96.12;99535.23;1721787;82;21110;-79
2022/11/02 03:31:56;;;;;;;19.02;9.45;;;;;;;8.81;96.15;99529.14;1679724;82;21067;-78
2022/11/02 03:34:48;;;;;;;18.75;9.43;;;;;;;8.84;95.96;99531.72;1695574;83;21899;-79
2022/11/02 03:37:31;;;;;;;17.92;9.60;;;;;;;8.83;95.59;99541.20;1692773;82;21035;-79
2022/11/02 03:40:23;;;;;;;19.65;9.60;;;;;;;8.83;95.45;99542.95;1719537;82;21027;-79
2022/11/02 03:42:53;;;;;;;19.67;10.03;;;;;;;8.82;95.55;99544.69;1708626;82;21015;-78
2022/11/02 03:45:26;;;;;;;16.87;9.10;;;;;;;8.88;95.79;99543.77;1718882;82;21071;-78
2022/11/02 03:48:01;;;;;;;21.55;10.65;;;;;;;8.92;95.25;99553.23;1695267;82;21019;-79
2022/11/02 03:50:33;;;;;;;21.68;10.95;;;;;;;8.88;94.93;99551.55;1704458;83;21000;-77
2022/11/02 03:53:15;;;;;;;20.37;10.03;;;;;;;8.88;95.22;99548.95;1706441;82;20996;-79
2022/11/02 03:55:48;;;;;;;18.80;9.93;;;;;;;8.89;94.74;99551.95;1713583;82;22137;-78
2022/11/02 03:58:16;;;;;;;18.40;9.08;;;;;;;8.80;94.34;99547.73;1709110;82;21081;-79
2022/11/02 04:00:54;;;;;;;19.10;9.80;;;;;;;8.70;94.28;99553.89;1707713;83;21627;-79
2022/11/02 04:03:24;;;;;;;18.80;10.10;;;;;;;8.60;94.82;99550.53;1706659;82;21063;-78
2022/11/02 04:05:53;;;;;;;19.42;9.55;;;;;;;8.60;95.00;99550.98;1722716;82;21080;-79
2022/11/02 04:08:31;;;;;;;21.07;9.48;;;;;;;8.54;94.65;99554.03;1709230;82;21044;-79
2022/11/02 04:16:36;;;;;;;23.30;10.70;;;;;;;8.51;94.83;99544.98;1725069;82;21559;-78
2022/11/02 04:27:26;;;;;;;32.28;13.48;;;;;;;8.60;95.84;99548.39;1726206;82;21000;-78
2022/11/02 04:29:54;;;;;;;35.95;14.90;;;;;;;8.65;95.66;99547.88;1719010;82;22006;-79
2022/11/02 04:34:51;;;;;;;28.27;13.50;;;;;;;8.56;94.56;99546.25;1694827;82;21009;-79
2022/11/02 04:40:06;;;;;;;22.77;10.85;;;;;;;8.53;94.87;99547.16;1716700;82;21076;-77
2022/11/02 04:42:34;;;;;;;32.03;12.70;;;;;;;8.56;95.34;99559.21;1706534;84;21034;-79
2022/11/02 04:45:02;;;;;;;28.23;11.80;;;;;;;8.56;95.30;99561.36;1706432;84;21008;-79
2022/11/02 04:47:30;;;;;;;27.70;12.00;;;;;;;8.59;95.56;99560.91;1700541;83;21574;-78
2022/11/02 04:49:58;;;;;;;26.20;11.93;;;;;;;8.61;95.45;99557.42;1706018;83;21088;-79
2022/11/02 04:52:25;;;;;;;30.15;13.48;;;;;;;8.65;95.58;99560.84;1705975;82;21020;-79
2022/11/02 04:54:55;;;;;;;28.45;13.28;;;;;;;8.71;95.56;99564.26;1722631;82;22182;-79
2022/11/02 04:57:24;;;;;;;32.05;13.43;;;;;;;8.73;95.38;99566.40;1706397;82;20965;-80
2022/11/02 04:59:53;;;;;;;26.90;11.45;;;;;;;8.74;94.94;99560.32;1719557;82;21068;-78
2022/11/02 05:02:21;;;;;;;26.48;11.93;;;;;;;8.73;94.92;99561.63;1711700;82;21033;-79
2022/11/02 05:04:49;;;;;;;26.12;11.38;;;;;;;8.75;95.06;99563.77;1716182;82;21052;-79
2022/11/02 05:07:17;;;;;;;20.48;10.90;;;;;;;8.71;94.52;99564.67;1707263;82;21000;-78
2022/11/02 05:09:45;;;;;;;22.90;10.55;;;;;;;8.72;94.79;99565.11;1706299;84;21012;-79
2022/11/02 05:12:13;;;;;;;21.80;11.78;;;;;;;8.72;94.67;99563.81;1706404;82;21044;-79
2022/11/02 05:14:40;;;;;;;22.95;11.25;;;;;;;8.73;94.40;99570.28;1694690;84;21468;-79
2022/11/02 05:17:08;;;;;;;25.27;10.75;;;;;;;8.73;95.12;99569.40;1708284;82;21048;-79
2022/11/02 05:19:36;;;;;;;25.50;11.95;;;;;;;8.78;95.11;99571.97;1713061;82;20991;-78
2022/11/02 05:22:05;;;;;;;24.63;11.80;;;;;;;8.79;94.76;99565.45;1706291;82;21028;-78
2022/11/02 05:24:34;;;;;;;22.40;10.58;;;;;;;8.79;94.55;99575.82;1724371;82;21036;-79
2022/11/02 05:27:02;;;;;;;24.72;10.78;;;;;;;8.82;94.41;99573.66;1713965;84;21067;-79
2022/11/02 05:29:29;;;;;;;22.25;11.63;;;;;;;8.84;94.36;99578.39;1715336;82;21044;-78
2022/11/02 05:31:58;;;;;;;25.45;11.53;;;;;;;8.86;94.54;99573.59;1689395;84;21477;-78
2022/11/02 05:34:25;;;;;;;23.55;11.00;;;;;;;8.91;94.50;99569.23;1727349;82;21067;-79
2022/11/02 05:36:53;;;;;;;24.80;11.93;;;;;;;8.99;94.56;99573.45;1716405;82;21067;-78
2022/11/02 05:39:21;;;;;;;25.08;11.68;;;;;;;9.03;94.19;99573.84;1710203;82;21059;-78
2022/11/02 05:41:49;;;;;;;25.57;13.18;;;;;;;9.05;94.18;99572.97;1707366;83;21025;-79
2022/11/02 05:44:17;;;;;;;24.95;11.28;;;;;;;9.09;93.88;99578.96;1706227;82;21071;-78
2022/11/02 05:46:45;;;;;;;29.10;11.75;;;;;;;9.03;93.53;99581.20;1725458;82;21008;-78
2022/11/02 05:49:14;;;;;;;24.15;11.20;;;;;;;9.01;93.63;99578.19;1711085;82;21012;-79
2022/11/02 05:51:43;;;;;;;24.18;11.55;;;;;;;9.02;93.76;99581.22;1722140;82;21043;-78
2022/11/02 05:54:10;;;;;;;26.50;11.97;;;;;;;9.08;94.13;99587.63;1705788;82;21031;-78
2022/11/02 05:56:38;;;;;;;29.52;12.28;;;;;;;9.16;94.45;99587.10;1706000;83;21073;-78
2022/11/02 05:59:06;;;;;;;22.05;10.63;;;;;;;9.18;93.62;99600.91;1699942;82;21020;-78
2022/11/02 06:01:34;;;;;;;24.60;11.10;;;;;;;9.15;93.38;99606.13;1713685;82;21356;-78
2022/11/02 06:04:02;;;;;;;30.88;13.95;;;;;;;9.06;93.66;99601.05;1673144;82;21071;-79
2022/11/02 06:06:30;;;;;;;27.82;12.28;;;;;;;8.98;93.68;99606.77;1708273;82;21110;-79
2022/11/02 06:08:57;;;;;;;33.98;14.20;;;;;;;8.95;93.72;99612.41;1713241;83;21016;-79
2022/11/02 06:11:25;;;;;;;30.45;12.05;;;;;;;8.91;94.11;99609.42;1727087;82;21167;-79
2022/11/02 06:13:52;;;;;;;25.65;11.38;;;;;;;8.95;94.75;99620.60;1710529;82;21047;-78
2022/11/02 06:16:20;;;;;;;26.12;13.15;;;;;;;8.97;94.26;99617.55;1704163;82;21071;-79
2022/11/02 06:18:48;;;;;;;26.90;12.28;;;;;;;9.02;94.35;99623.56;1711106;81;21180;-79
2022/11/02 06:21:15;;;;;;;26.75;12.60;;;;;;;8.99;94.21;99619.70;1707848;82;21055;-79
2022/11/02 06:23:47;;;;;;;26.82;11.70;;;;;;;9.05;94.69;99625.26;1717307;82;22331;-78
2022/11/02 06:26:15;;;;;;;27.07;12.55;;;;;;;9.08;94.64;99627.84;1695303;82;21013;-81
2022/11/02 06:28:43;;;;;;;27.65;13.00;;;;;;;9.05;93.90;99626.55;1705401;83;21040;-80
2022/11/02 06:31:12;;;;;;;27.52;12.63;;;;;;;8.98;94.43;99623.17;1687377;82;21043;-78
2022/11/02 06:33:39;;;;;;;28.10;12.28;;;;;;;9.02;95.16;99630.50;1713654;82;21069;-79
2022/11/02 06:36:08;;;;;;;30.08;12.68;;;;;;;9.06;95.05;99634.78;1703827;82;21020;-79
2022/11/02 06:38:37;;;;;;;28.35;12.10;;;;;;;9.11;95.09;99635.56;1712633;82;21032;-79
2022/11/02 06:41:05;;;;;;;23.92;10.60;;;;;;;9.16;95.08;99638.98;1703089;84;22168;-78
2022/11/02 06:43:36;;;;;;;28.90;13.25;;;;;;;9.23;94.69;99646.25;1713300;82;21032;-81
2022/11/02 06:46:04;;;;;;;26.07;11.80;;;;;;;9.21;94.82;99641.11;1707135;84;21507;-78
2022/11/02 06:48:33;;;;;;;30.10;13.32;;;;;;;9.25;94.86;99640.20;1719278;82;21563;-80
2022/11/02 06:51:01;;;;;;;31.62;14.18;;;;;;;9.27;94.68;99643.63;1703821;83;21031;-79
2022/11/02 06:53:29;;;;;;;31.00;12.78;;;;;;;9.27;94.70;99647.52;1705238;82;21055;-79
2022/11/02 06:55:58;;;;;;;27.77;12.30;;;;;;;9.35;94.84;99644.40;1706924;84;21079;-79
2022/11/02 06:58:27;;;;;;;27.32;12.73;;;;;;;9.39;94.62;99650.84;1697494;82;21059;-78
2022/11/02 07:01:06;;;;;;;32.03;13.78;;;;;;;9.47;94.62;99646.00;1700174;82;21084;-78
2022/11/02 07:03:34;;;;;;;25.50;11.35;;;;;;;9.41;94.48;99640.00;1694704;82;21827;-78
2022/11/02 07:06:03;;;;;;;27.67;11.85;;;;;;;9.48;94.43;99644.25;1700614;82;21503;-79
2022/11/02 07:08:30;;;;;;;29.72;12.88;;;;;;;9.56;94.26;99647.61;1699443;82;21020;-79
2022/11/02 07:10:58;;;;;;;30.85;11.12;;;;;;;9.57;94.57;99650.64;1693433;82;21022;-79
2022/11/02 07:13:26;;;;;;;32.28;11.33;;;;;;;9.61;94.50;99646.25;1699587;82;21067;-79
2022/11/02 07:15:54;;;;;;;26.00;11.40;;;;;;;9.62;94.55;99646.23;1702184;82;21028;-78
2022/11/02 07:18:22;;;;;;;29.90;13.68;;;;;;;9.69;94.77;99644.00;1695114;82;21110;-78
2022/11/02 07:20:50;;;;;;;32.42;12.80;;;;;;;9.79;94.75;99646.03;1700493;82;21044;-77
2022/11/02 07:23:22;;;;;;;28.52;12.00;;;;;;;9.78;94.45;99653.84;1688205;82;21092;-79
2022/11/02 07:25:47;;;;;;;28.12;11.33;;;;;;;9.81;94.37;99645.99;1653309;84;21001;-79
2022/11/02 07:28:15;;;;;;;33.13;12.70;;;;;;;9.81;94.19;99641.69;1690427;84;21586;-77
2022/11/02 07:30:42;;;;;;;30.57;11.60;;;;;;;9.81;94.24;99653.37;1701097;82;21035;-79
2022/11/02 07:33:10;;;;;;;27.55;11.50;;;;;;;9.84;93.98;99653.76;1691312;83;21088;-77
2022/11/02 07:35:38;;;;;;;33.53;11.75;;;;;;;9.81;93.97;99649.89;1700129;82;21624;-78
2022/11/02 07:38:07;;;;;;;28.55;11.08;;;;;;;9.73;94.25;99659.10;1648700;85;21054;-78
2022/11/02 07:40:35;;;;;;;27.13;10.95;;;;;;;9.78;94.62;99653.84;1656458;85;21064;-79
2022/11/02 07:43:03;;;;;;;24.05;10.70;;;;;;;9.82;94.26;99650.32;1662506;84;21520;-78
2022/11/02 07:45:50;;;;;;;29.95;10.53;;;;;;;9.78;94.45;99654.69;1670100;84;21089;-78
2022/11/02 07:48:18;;;;;;;37.70;16.00;;;;;;;9.82;94.14;99656.81;1662009;84;21062;-78
2022/11/02 07:50:46;;;;;;;32.28;10.75;;;;;;;9.80;94.46;99656.83;1698975;82;21056;-78
2022/11/02 07:53:13;;;;;;;29.20;12.33;;;;;;;9.82;94.43;99647.73;1692551;82;21054;-80
2022/11/02 07:55:41;;;;;;;27.30;10.85;;;;;;;9.89;94.22;99654.56;1697969;82;21648;-80
2022/11/02 07:58:13;;;;;;;34.20;11.05;;;;;;;9.89;94.39;99648.92;1700485;82;21011;-78
2022/11/02 08:00:42;;;;;;;25.65;11.43;;;;;;;9.90;93.86;99649.78;1698722;82;21059;-77
2022/11/02 08:03:11;;;;;;;34.00;10.98;;;;;;;9.88;94.02;99650.23;1699214;82;21008;-79
2022/11/02 08:05:41;;;;;;;27.07;11.38;;;;;;;9.88;93.94;99644.59;1697084;82;21908;-78
2022/11/02 08:08:13;;;;;;;25.88;10.95;;;;;;;9.97;93.86;99650.13;1703118;82;20984;-79
2022/11/02 08:10:42;;;;;;;24.52;10.30;;;;;;;9.97;93.91;99651.42;1704985;84;21372;-79
2022/11/02 08:13:14;;;;;;;30.25;10.70;;;;;;;10.00;93.84;99647.91;1694940;82;21147;-77
2022/11/02 08:15:42;;;;;;;25.37;10.65;;;;;;;10.05;93.80;99650.87;1687211;83;21657;-80
2022/11/02 08:18:17;;;;;;;28.27;10.88;;;;;;;10.05;93.59;99652.63;1696875;82;21044;-79
2022/11/02 08:20:45;;;;;;;30.27;11.63;;;;;;;10.07;93.56;99649.56;1707009;83;21127;-78
2022/11/02 08:23:15;;;;;;;23.40;10.28;;;;;;;10.12;93.74;99652.48;1705686;82;21016;-79
2022/11/02 08:25:45;;;;;;;24.98;10.43;;;;;;;10.14;93.24;99655.92;1719471;82;21040;-78
2022/11/02 08:28:23;;;;;;;26.23;10.88;;;;;;;10.20;93.13;99649.78;1707952;82;21082;-78
2022/11/02 08:30:52;;;;;;;25.30;9.28;;;;;;;10.23;92.83;99645.85;1708968;82;21814;-79
2022/11/02 08:33:20;;;;;;;23.32;9.38;;;;;;;10.28;93.02;99645.77;1695095;82;21055;-77
2022/11/02 08:35:48;;;;;;;24.32;9.88;;;;;;;10.34;92.28;99645.29;1693145;82;21059;-77
2022/11/02 08:38:17;;;;;;;22.27;9.70;;;;;;;10.37;92.40;99645.67;1702370;82;21107;-78
2022/11/02 08:40:44;;;;;;;21.23;8.90;;;;;;;10.35;92.46;99646.99;1718112;82;21861;-79
2022/11/02 08:43:14;;;;;;;18.73;9.70;;;;;;;10.41;91.81;99641.30;1704779;82;21537;-79
2022/11/02 08:45:44;;;;;;;19.40;8.93;;;;;;;10.48;92.20;99647.64;1708902;82;21013;-79
2022/11/02 08:48:12;;;;;;;21.12;9.03;;;;;;;10.52;91.62;99642.84;1701175;82;21008;-78
2022/11/02 08:50:40;;;;;;;24.70;10.35;;;;;;;10.52;90.86;99649.34;1706787;82;21039;-79
2022/11/02 08:53:08;;;;;;;20.92;9.40;;;;;;;10.49;90.51;99662.38;1704894;84;21588;-79
2022/11/02 08:55:36;;;;;;;25.25;10.18;;;;;;;10.49;90.79;99653.72;1704576;84;21053;-78
2022/11/02 08:58:03;;;;;;;20.80;9.53;;;;;;;10.53;90.87;99657.99;1704830;84;20998;-78
2022/11/02 09:00:33;;;;;;;23.10;10.10;;;;;;;10.57;90.88;99653.61;1710704;82;21322;-79
2022/11/02 09:03:11;;;;;;;24.77;10.35;;;;;;;10.60;90.64;99657.44;1721025;82;21028;-79
2022/11/02 09:05:44;;;;;;;24.35;10.38;;;;;;;10.51;90.66;99663.20;1708846;82;21040;-78
2022/11/02 09:08:19;;;;;;;27.22;10.25;;;;;;;10.49;90.21;99662.38;1720560;82;21092;-78
2022/11/02 09:10:51;;;;;;;27.00;11.00;;;;;;;10.47;90.08;99660.69;1705214;82;21004;-78
2022/11/02 09:13:24;;;;;;;25.40;10.72;;;;;;;10.42;90.36;99664.64;1704698;83;21075;-79
2022/11/02 09:15:52;;;;;;;25.37;11.93;;;;;;;10.39;90.21;99667.30;1704779;82;21141;-78
2022/11/02 09:18:20;;;;;;;23.83;11.43;;;;;;;10.27;90.18;99673.95;1718324;82;21010;-79
2022/11/02 09:20:49;;;;;;;24.32;10.40;;;;;;;10.15;90.43;99664.14;1704740;82;21606;-81
2022/11/02 09:23:19;;;;;;;25.08;10.25;;;;;;;10.13;90.88;99668.51;1707929;84;21024;-78
2022/11/02 09:25:48;;;;;;;34.58;12.68;;;;;;;10.20;91.23;99672.31;1704699;82;21518;-79
2022/11/02 09:28:16;;;;;;;25.37;11.33;;;;;;;10.24;91.24;99670.09;1706733;83;21586;-81
2022/11/02 09:30:44;;;;;;;26.50;10.55;;;;;;;10.24;91.05;99675.28;1707631;82;21016;-80
2022/11/02 09:33:12;;;;;;;25.32;10.55;;;;;;;10.25;91.06;99671.38;1718471;82;21948;-79
2022/11/02 09:35:46;;;;;;;29.60;10.70;;;;;;;10.24;91.03;99668.79;1687104;82;21007;-79
2022/11/02 09:38:15;;;;;;;21.97;9.83;;;;;;;10.22;90.70;99670.11;1703620;83;21119;-77
2022/11/02 09:40:51;;;;;;;26.27;10.82;;;;;;;10.16;90.89;99672.34;1686879;82;21015;-79
2022/11/02 09:43:51;;;;;;;28.23;11.60;;;;;;;10.19;90.72;99673.22;1696844;82;21610;-78
2022/11/02 09:46:25;;;;;;;28.77;11.43;;;;;;;10.14;91.04;99659.81;1704137;82;21055;-78
2022/11/02 09:49:17;;;;;;;27.52;11.90;;;;;;;10.25;90.94;99663.58;1704318;84;21012;-79
2022/11/02 09:51:59;;;;;;;29.50;13.05;;;;;;;10.22;91.28;99663.61;1704449;82;21055;-79
2022/11/02 09:54:40;;;;;;;25.10;11.45;;;;;;;10.30;91.33;99663.53;1706243;83;21004;-78
2022/11/02 09:57:22;;;;;;;28.40;11.00;;;;;;;10.39;91.10;99658.66;1704873;82;21012;-82
2022/11/02 09:59:50;;;;;;;23.83;11.38;;;;;;;10.46;91.15;99658.95;1699642;82;21068;-80
2022/11/02 10:02:32;;;;;;;31.75;12.50;;;;;;;10.42;91.35;99656.84;1684653;82;21044;-79
2022/11/02 10:05:25;;;;;;;26.30;10.88;;;;;;;10.51;91.64;99659.76;1726220;82;21020;-79
2022/11/02 10:08:04;;;;;;;26.93;11.28;;;;;;;10.67;91.02;99661.67;1707221;82;21027;-79
2022/11/02 10:10:59;;;;;;;29.85;11.97;;;;;;;10.60;91.11;99662.19;1726258;82;21531;-79
2022/11/02 10:13:57;;;;;;;29.50;11.30;;;;;;;10.67;91.08;99660.38;1707382;82;21107;-80
2022/11/02 10:16:48;;;;;;;27.62;12.10;;;;;;;10.77;90.92;99663.23;1726491;82;20992;-79
2022/11/02 10:19:19;;;;;;;35.60;13.78;;;;;;;10.74;90.77;99657.65;1708054;82;21301;-79
2022/11/02 10:21:51;;;;;;;33.48;12.93;;;;;;;10.80;90.24;99656.66;1689144;84;20964;-79
2022/11/02 10:24:36;;;;;;;35.63;13.65;;;;;;;10.81;90.48;99656.23;1712262;82;21012;-79
2022/11/02 10:27:14;;;;;;;28.20;12.85;;;;;;;10.84;90.15;99656.17;1689768;84;21028;-77
2022/11/02 10:29:59;;;;;;;35.20;13.15;;;;;;;10.90;89.98;99654.34;1713957;82;21011;-79
2022/11/02 10:32:27;;;;;;;29.72;13.53;;;;;;;10.85;89.91;99657.91;1694405;84;21174;-80
2022/11/02 10:34:54;;;;;;;39.10;13.25;;;;;;;10.84;90.29;99657.47;1707987;82;20976;-78
2022/11/02 10:37:48;;;;;;;33.48;13.53;;;;;;;10.92;90.08;99657.77;1706946;83;21401;-78
2022/11/02 10:40:25;;;;;;;;;;;;;;;10.87;89.88;99649.63;1709974;82;21111;-80
2022/11/02 10:43:23;;;;;;;32.20;14.43;;;;;;;10.85;90.17;99647.05;1681763;84;20521;-79
2022/11/02 10:45:59;;;;;;;38.63;16.67;;;;;;;10.87;90.12;99643.13;1708304;82;21036;-78
2022/11/02 10:48:48;;;;;;;38.85;16.50;;;;;;;10.95;90.17;99642.09;1707328;84;21045;-80
2022/11/02 10:51:16;;;;;;;42.98;18.07;;;;;;;11.03;89.87;99646.31;1710811;82;21020;-79
2022/11/02 10:53:47;;;;;;;40.50;16.35;;;;;;;11.01;89.76;99641.58;1713186;82;21040;-79
2022/11/02 10:56:22;;;;;;;37.05;16.60;;;;;;;11.03;89.82;99645.02;1721603;82;21070;-79
2022/11/02 10:58:58;;;;;;;49.38;18.70;;;;;;;11.05;90.03;99645.39;1712936;82;21012;-78
2022/11/02 11:01:29;;;;;;;40.30;17.60;;;;;;;11.10;89.95;99639.67;1726997;82;21320;-77
2022/11/02 11:04:23;;;;;;;41.40;18.37;;;;;;;11.17;89.67;99637.80;1703318;84;21103;-79
2022/11/02 11:06:52;;;;;;;33.80;14.65;;;;;;;11.23;89.89;99637.69;1707394;82;20996;-79
2022/11/02 11:09:46;;;;;;;40.55;17.70;;;;;;;11.44;89.72;99629.03;1687754;83;21068;-78
2022/11/02 11:12:26;;;;;;;39.50;16.37;;;;;;;11.51;89.55;99629.33;1707250;82;21570;-79
2022/11/02 11:14:57;;;;;;;36.63;14.73;;;;;;;11.52;89.76;99622.80;1725284;82;21025;-79
2022/11/02 11:17:35;;;;;;;35.13;16.23;;;;;;;11.71;90.10;99617.20;1707606;82;21091;-79
2022/11/02 11:20:07;;;;;;;34.65;15.93;;;;;;;11.89;89.67;99623.78;1727019;82;21019;-78
2022/11/02 11:22:38;;;;;;;39.23;16.67;;;;;;;12.04;89.39;99623.91;1720137;82;21048;-78
2022/11/02 11:25:25;;;;;;;37.60;16.55;;;;;;;12.15;89.03;99617.98;1697645;82;21032;-78
2022/11/02 11:27:56;;;;;;;38.95;16.95;;;;;;;12.28;88.10;99619.87;1708004;82;20988;-80
2022/11/02 11:30:36;;;;;;;45.33;18.07;;;;;;;12.40;88.19;99620.87;1719492;82;21012;-79
2022/11/02 11:33:06;;;;;;;43.40;17.05;;;;;;;12.45;88.00;99612.48;1711069;82;21044;-79
2022/11/02 11:35:38;;;;;;;47.43;17.40;;;;;;;12.55;86.99;99618.33;1727146;82;21069;-78
2022/11/02 11:38:18;;;;;;;41.98;16.73;;;;;;;12.50;86.98;99622.36;1707247;82;21816;-78
2022/11/02 11:40:52;;;;;;;37.17;16.25;;;;;;;12.51;86.46;99616.69;1703695;84;21555;-78
2022/11/02 11:43:25;;;;;;;41.90;16.95;;;;;;;12.59;86.17;99601.70;1694694;82;21003;-80
2022/11/02 11:45:59;;;;;;;50.52;18.02;;;;;;;12.61;86.92;99605.13;1703678;83;21036;-79
2022/11/02 11:48:53;;;;;;;53.05;17.57;;;;;;;12.63;86.92;99603.34;1705011;82;21091;-79
2022/11/02 11:51:29;;;;;;;47.15;18.30;;;;;;;12.68;87.33;99601.94;1717810;82;21126;-78
2022/11/02 11:54:29;;;;;;;54.10;19.48;;;;;;;12.76;86.49;99597.37;1697456;82;21032;-80
2022/11/02 11:57:17;;;;;;;52.93;17.35;;;;;;;12.81;86.34;99598.13;1685517;83;21143;-78
2022/11/02 11:59:57;;;;;;;46.83;17.82;;;;;;;12.88;85.62;99600.96;1687391;82;21020;-80
2022/11/02 12:02:36;;;;;;;39.90;17.12;;;;;;;12.90;85.79;99595.25;1707438;82;21020;-78
2022/11/02 12:05:14;;;;;;;;;;;;;;;12.91;85.61;99594.38;1723440;82;21016;-77
2022/11/02 12:08:02;;;;;;;45.92;18.82;;;;;;;12.97;85.97;99588.56;1697170;84;20136;-78
2022/11/02 12:10:52;;;;;;;53.80;17.37;;;;;;;12.96;84.83;99589.02;1721894;82;21024;-78